Time,TemperatureF,DewpointF,PressureIn,WindDirection,WindDirectionDegrees,WindSpeedMPH,WindSpeedGustMPH,Humidity,HourlyPrecipIn,Conditions,Clouds,dailyrainin,SoftwareType,DateUTC
2013-09-03 00:02:00,63.1,59.2,29.91,NW,306,0.0,0.0,87,0.00,,---,0.00,VWS V14.01,2013-09-03 07:02:00,
2013-09-03 00:07:00,63.1,59.2,29.91,NW,306,0.0,0.0,87,0.00,,---,0.00,VWS V14.01,2013-09-03 07:07:00,
2013-09-03 00:13:00,62.9,59.3,29.91,NW,306,0.0,0.0,88,0.00,,---,0.00,VWS V14.01,2013-09-03 07:13:00,
2013-09-03 00:18:00,62.7,59.1,29.91,NW,306,0.0,0.0,88,0.00,,---,0.00,VWS V14.01,2013-09-03 07:18:00,
2013-09-03 00:23:00,62.7,59.1,29.91,NW,306,0.0,0.0,88,0.00,,---,0.00,VWS V14.01,2013-09-03 07:23:00,
2013-09-03 00:28:00,62.6,59.3,29.91,NW,306,0.0,0.0,89,0.00,,---,0.00,VWS V14.01,2013-09-03 07:28:00,
2013-09-03 00:33:00,62.6,59.3,29.91,NW,306,0.0,0.0,89,0.00,,---,0.00,VWS V14.01,2013-09-03 07:33:00,
2013-09-03 00:38:00,62.4,59.1,29.91,NW,306,0.0,0.0,89,0.00,,---,0.00,VWS V14.01,2013-09-03 07:38:00,
2013-09-03 00:43:00,62.4,59.1,29.91,NW,306,0.0,0.0,89,0.00,,---,0.00,VWS V14.01,2013-09-03 07:43:00,
2013-09-03 00:48:00,62.4,59.1,29.91,NW,306,0.0,0.0,89,0.00,,---,0.00,VWS V14.01,2013-09-03 07:48:00,
2013-09-03 00:53:00,62.3,59.0,29.91,NW,306,0.0,0.0,89,0.00,,---,0.00,VWS V14.01,2013-09-03 07:53:00,
2013-09-03 00:58:00,62.3,59.0,29.91,NW,306,0.0,0.0,89,0.00,,---,0.00,VWS V14.01,2013-09-03 07:58:00,
2013-09-03 01:03:00,62.3,59.0,29.91,NW,306,0.0,0.0,89,0.00,,---,0.00,VWS V14.01,2013-09-03 08:03:00,
2013-09-03 01:08:00,62.1,58.8,29.91,NW,306,0.0,0.0,89,0.00,,---,0.00,VWS V14.01,2013-09-03 08:08:00,
2013-09-03 01:14:00,62.1,58.8,29.91,NW,306,0.0,0.0,89,0.00,,---,0.00,VWS V14.01,2013-09-03 08:14:00,
2013-09-03 01:19:00,62.1,58.8,29.91,NW,306,0.0,0.0,89,0.00,,---,0.00,VWS V14.01,2013-09-03 08:19:00,
2013-09-03 01:24:00,62.0,58.7,29.91,NW,306,0.0,0.0,89,0.00,,---,0.00,VWS V14.01,2013-09-03 08:24:00,
2013-09-03 01:29:00,62.0,58.7,29.91,NW,306,0.0,0.0,89,0.00,,---,0.00,VWS V14.01,2013-09-03 08:29:00,
2013-09-03 01:34:00,61.8,58.8,29.91,NW,306,0.0,0.0,90,0.00,,---,0.00,VWS V14.01,2013-09-03 08:34:00,
2013-09-03 01:39:00,61.8,58.8,29.91,NW,306,0.0,0.0,90,0.00,,---,0.00,VWS V14.01,2013-09-03 08:39:00,
2013-09-03 01:44:00,61.8,58.8,29.91,NW,306,0.0,0.0,90,0.00,,---,0.00,VWS V14.01,2013-09-03 08:44:00,
2013-09-03 01:49:00,61.6,58.6,29.91,NW,306,0.0,0.0,90,0.00,,---,0.00,VWS V14.01,2013-09-03 08:49:00,
2013-09-03 01:54:00,61.6,58.6,29.91,NW,306,0.0,0.0,90,0.00,,---,0.00,VWS V14.01,2013-09-03 08:54:00,
2013-09-03 01:59:00,61.5,58.5,29.91,NW,306,0.0,0.0,90,0.00,,---,0.00,VWS V14.01,2013-09-03 08:59:00,
2013-09-03 02:04:00,61.3,58.7,29.91,NW,306,0.0,0.0,91,0.00,,---,0.00,VWS V14.01,2013-09-03 09:04:00,
2013-09-03 02:09:00,61.3,58.7,29.91,NW,306,0.0,0.0,91,0.00,,---,0.00,VWS V14.01,2013-09-03 09:09:00,
2013-09-03 02:14:00,61.3,58.7,29.91,NW,306,0.0,0.0,91,0.00,,---,0.00,VWS V14.01,2013-09-03 09:14:00,
2013-09-03 02:20:00,61.3,58.7,29.91,NW,306,0.0,0.0,91,0.00,,---,0.00,VWS V14.01,2013-09-03 09:20:00,
2013-09-03 02:25:00,61.3,58.7,29.91,NW,306,0.0,0.0,91,0.00,,---,0.00,VWS V14.01,2013-09-03 09:25:00,
2013-09-03 02:30:00,61.2,58.6,29.91,NW,306,0.0,0.0,91,0.00,,---,0.00,VWS V14.01,2013-09-03 09:30:00,
2013-09-03 02:35:00,61.2,58.6,29.91,NW,306,0.0,0.0,91,0.00,,---,0.00,VWS V14.01,2013-09-03 09:35:00,
2013-09-03 02:40:00,61.2,58.6,29.91,NW,306,0.0,0.0,91,0.00,,---,0.00,VWS V14.01,2013-09-03 09:40:00,
2013-09-03 02:45:00,61.2,58.6,29.91,NW,306,0.0,0.0,91,0.00,,---,0.00,VWS V14.01,2013-09-03 09:45:00,
2013-09-03 02:50:00,61.0,58.4,29.91,NW,306,0.0,0.0,91,0.00,,---,0.00,VWS V14.01,2013-09-03 09:50:00,
2013-09-03 02:55:00,60.9,58.3,29.91,NW,306,0.0,0.0,91,0.00,,---,0.00,VWS V14.01,2013-09-03 09:55:00,
2013-09-03 03:00:00,60.7,58.1,29.91,NW,306,0.0,0.0,91,0.00,,---,0.00,VWS V14.01,2013-09-03 10:00:00,
2013-09-03 03:05:00,60.5,57.9,29.91,NW,306,0.0,0.0,91,0.00,,---,0.00,VWS V14.01,2013-09-03 10:05:00,
2013-09-03 03:10:00,60.4,57.8,29.91,NW,306,0.0,0.0,91,0.00,,---,0.00,VWS V14.01,2013-09-03 10:10:00,
2013-09-03 03:15:00,60.4,58.1,29.91,NW,306,0.0,0.0,92,0.00,,---,0.00,VWS V14.01,2013-09-03 10:15:00,
2013-09-03 03:21:00,60.4,58.1,29.91,NW,306,0.0,0.0,92,0.00,,---,0.00,VWS V14.01,2013-09-03 10:21:00,
2013-09-03 03:26:00,60.5,58.5,29.91,NW,306,0.0,0.0,93,0.00,,---,0.00,VWS V14.01,2013-09-03 10:26:00,
2013-09-03 03:31:00,60.7,58.7,29.91,NW,306,0.0,0.0,93,0.00,,---,0.00,VWS V14.01,2013-09-03 10:31:00,
2013-09-03 03:36:00,60.7,58.7,29.91,NW,306,0.0,0.0,93,0.00,,---,0.00,VWS V14.01,2013-09-03 10:36:00,
2013-09-03 03:41:00,60.5,58.5,29.91,NW,306,0.0,0.0,93,0.00,,---,0.00,VWS V14.01,2013-09-03 10:41:00,
2013-09-03 03:46:00,60.4,58.1,29.91,NW,306,0.0,0.0,92,0.00,,---,0.00,VWS V14.01,2013-09-03 10:46:00,
2013-09-03 03:51:00,60.4,58.4,29.91,NW,306,0.0,0.0,93,0.00,,---,0.00,VWS V14.01,2013-09-03 10:51:00,
2013-09-03 03:56:00,60.2,57.9,29.91,NW,306,0.0,0.0,92,0.00,,---,0.00,VWS V14.01,2013-09-03 10:56:00,
2013-09-03 04:01:00,60.2,58.2,29.91,NW,306,0.0,0.0,93,0.00,,---,0.00,VWS V14.01,2013-09-03 11:01:00,
2013-09-03 04:06:00,60.1,58.1,29.91,NW,306,0.0,3.0,93,0.00,,---,0.00,VWS V14.01,2013-09-03 11:06:00,
2013-09-03 04:11:00,59.9,57.9,29.91,NW,306,0.0,3.0,93,0.00,,---,0.00,VWS V14.01,2013-09-03 11:11:00,
2013-09-03 04:16:00,59.9,57.9,29.91,NW,306,0.0,3.0,93,0.00,,---,0.00,VWS V14.01,2013-09-03 11:16:00,
2013-09-03 04:21:00,59.9,57.9,29.91,NW,306,0.0,3.0,93,0.00,,---,0.00,VWS V14.01,2013-09-03 11:21:00,
2013-09-03 04:26:00,59.9,57.9,29.91,NW,306,0.0,3.0,93,0.00,,---,0.00,VWS V14.01,2013-09-03 11:26:00,
2013-09-03 04:32:00,59.8,57.8,29.91,NW,306,0.0,3.0,93,0.00,,---,0.00,VWS V14.01,2013-09-03 11:32:00,
2013-09-03 04:37:00,59.6,57.6,29.91,NW,306,0.0,0.0,93,0.00,,---,0.00,VWS V14.01,2013-09-03 11:37:00,
2013-09-03 04:42:00,59.5,57.5,29.91,NW,306,0.0,0.0,93,0.00,,---,0.00,VWS V14.01,2013-09-03 11:42:00,
2013-09-03 04:47:00,59.5,57.5,29.91,NW,306,0.0,0.0,93,0.00,,---,0.00,VWS V14.01,2013-09-03 11:47:00,
2013-09-03 04:52:00,59.3,57.3,29.91,NW,306,0.0,0.0,93,0.00,,---,0.00,VWS V14.01,2013-09-03 11:52:00,
2013-09-03 04:57:00,59.3,57.6,29.91,NW,306,0.0,0.0,94,0.00,,---,0.00,VWS V14.01,2013-09-03 11:57:00,
2013-09-03 05:02:00,59.3,57.6,29.91,NW,306,0.0,0.0,94,0.00,,---,0.00,VWS V14.01,2013-09-03 12:02:00,
2013-09-03 05:07:00,59.2,57.5,29.91,NW,306,0.0,0.0,94,0.00,,---,0.00,VWS V14.01,2013-09-03 12:07:00,
2013-09-03 05:12:00,59.0,57.3,29.91,NW,306,0.0,0.0,94,0.00,,---,0.00,VWS V14.01,2013-09-03 12:12:00,
2013-09-03 05:17:00,58.9,57.2,29.91,NW,306,0.0,0.0,94,0.00,,---,0.00,VWS V14.01,2013-09-03 12:17:00,
2013-09-03 05:22:00,58.9,57.2,29.91,NW,306,0.0,0.0,94,0.00,,---,0.00,VWS V14.01,2013-09-03 12:22:00,
2013-09-03 05:28:00,58.9,57.2,29.91,NW,306,0.0,0.0,94,0.00,,---,0.00,VWS V14.01,2013-09-03 12:28:00,
2013-09-03 05:33:00,58.9,57.2,29.91,NW,306,0.0,0.0,94,0.00,,---,0.00,VWS V14.01,2013-09-03 12:33:00,
2013-09-03 05:38:00,58.9,57.5,29.91,NW,306,0.0,0.0,95,0.00,,---,0.00,VWS V14.01,2013-09-03 12:38:00,
2013-09-03 05:43:00,59.0,57.6,29.91,NW,306,0.0,0.0,95,0.00,,---,0.00,VWS V14.01,2013-09-03 12:43:00,
2013-09-03 05:48:00,59.0,57.6,29.91,NW,306,0.0,0.0,95,0.00,,---,0.00,VWS V14.01,2013-09-03 12:48:00,
2013-09-03 05:53:00,58.9,57.5,29.91,NW,306,0.0,0.0,95,0.00,,---,0.00,VWS V14.01,2013-09-03 12:53:00,
2013-09-03 05:58:00,58.7,57.3,29.91,NW,306,0.0,0.0,95,0.00,,---,0.00,VWS V14.01,2013-09-03 12:58:00,
2013-09-03 06:03:00,58.7,57.3,29.91,NW,306,0.0,0.0,95,0.00,,---,0.00,VWS V14.01,2013-09-03 13:03:00,
2013-09-03 06:08:00,58.6,57.2,29.92,NW,306,0.0,0.0,95,0.00,,---,0.00,VWS V14.01,2013-09-03 13:08:00,
2013-09-03 06:13:00,58.6,57.2,29.92,NW,306,0.0,0.0,95,0.00,,---,0.00,VWS V14.01,2013-09-03 13:13:00,
2013-09-03 06:18:00,58.6,57.2,29.92,NW,306,0.0,0.0,95,0.00,,---,0.00,VWS V14.01,2013-09-03 13:18:00,
2013-09-03 06:23:00,58.6,57.2,29.92,NW,306,0.0,0.0,95,0.00,,---,0.00,VWS V14.01,2013-09-03 13:23:00,
2013-09-03 06:29:00,58.4,57.0,29.92,NW,306,0.0,0.0,95,0.00,,---,0.00,VWS V14.01,2013-09-03 13:29:00,
2013-09-03 06:34:00,58.4,57.0,29.92,NW,306,0.0,0.0,95,0.00,,---,0.00,VWS V14.01,2013-09-03 13:34:00,
2013-09-03 06:39:00,58.3,56.9,29.92,NW,306,0.0,0.0,95,0.00,,---,0.00,VWS V14.01,2013-09-03 13:39:00,
2013-09-03 06:44:00,58.1,56.7,29.92,NW,306,0.0,0.0,95,0.00,,---,0.00,VWS V14.01,2013-09-03 13:44:00,
2013-09-03 06:49:00,58.0,56.6,29.92,NW,306,0.0,0.0,95,0.00,,---,0.00,VWS V14.01,2013-09-03 13:49:00,
2013-09-03 06:54:00,58.0,56.6,29.93,NW,306,0.0,0.0,95,0.00,,---,0.00,VWS V14.01,2013-09-03 13:54:00,
2013-09-03 06:59:00,58.0,56.6,29.93,NW,306,0.0,0.0,95,0.00,,---,0.00,VWS V14.01,2013-09-03 13:59:00,
2013-09-03 07:04:00,58.0,56.6,29.93,NW,306,0.0,0.0,95,0.00,,---,0.00,VWS V14.01,2013-09-03 14:04:00,
2013-09-03 07:09:00,58.1,57.0,29.94,NW,306,0.0,0.0,96,0.00,,---,0.00,VWS V14.01,2013-09-03 14:09:00,
2013-09-03 07:14:00,58.3,57.2,29.94,NW,306,0.0,0.0,96,0.00,,---,0.00,VWS V14.01,2013-09-03 14:14:00,
2013-09-03 07:19:00,58.4,57.3,29.94,NW,306,0.0,0.0,96,0.00,,---,0.00,VWS V14.01,2013-09-03 14:19:00,
2013-09-03 07:24:00,58.6,57.5,29.94,NW,306,0.0,0.0,96,0.00,,---,0.00,VWS V14.01,2013-09-03 14:24:00,
2013-09-03 07:30:00,58.6,57.5,29.94,NW,306,0.0,0.0,96,0.00,,---,0.00,VWS V14.01,2013-09-03 14:30:00,
2013-09-03 07:35:00,58.7,57.6,29.94,NW,306,0.0,0.0,96,0.00,,---,0.00,VWS V14.01,2013-09-03 14:35:00,
2013-09-03 07:40:00,58.9,57.8,29.94,NW,306,0.0,0.0,96,0.00,,---,0.00,VWS V14.01,2013-09-03 14:40:00,
2013-09-03 07:45:00,59.2,58.1,29.94,NW,306,0.0,0.0,96,0.00,,---,0.00,VWS V14.01,2013-09-03 14:45:00,
2013-09-03 07:50:00,59.3,58.2,29.94,NW,306,0.0,0.0,96,0.00,,---,0.00,VWS V14.01,2013-09-03 14:50:00,
2013-09-03 07:55:00,59.8,58.7,29.94,NW,306,0.0,0.0,96,0.00,,---,0.00,VWS V14.01,2013-09-03 14:55:00,
2013-09-03 08:00:00,60.2,59.1,29.94,NW,306,0.0,0.0,96,0.00,,---,0.00,VWS V14.01,2013-09-03 15:00:00,
2013-09-03 08:05:00,61.2,60.0,29.94,NW,306,0.0,0.0,96,0.00,,---,0.00,VWS V14.01,2013-09-03 15:05:00,
2013-09-03 08:10:00,62.3,61.2,29.94,NW,306,0.0,0.0,96,0.00,,---,0.00,VWS V14.01,2013-09-03 15:10:00,
2013-09-03 08:15:00,63.2,61.8,29.94,NW,306,0.0,0.0,95,0.00,,---,0.00,VWS V14.01,2013-09-03 15:15:00,
2013-09-03 08:20:00,64.0,62.2,29.94,NW,306,0.0,0.0,94,0.00,,---,0.00,VWS V14.01,2013-09-03 15:20:00,
2013-09-03 08:25:00,64.7,62.3,29.94,NW,306,0.0,0.0,92,0.00,,---,0.00,VWS V14.01,2013-09-03 15:25:00,
2013-09-03 08:30:00,65.5,62.2,29.94,North,5,2.0,2.0,89,0.00,,---,0.00,VWS V14.01,2013-09-03 15:30:00,
2013-09-03 08:36:00,66.1,61.5,29.94,NNE,18,1.0,1.0,85,0.00,,---,0.00,VWS V14.01,2013-09-03 15:36:00,
2013-09-03 08:41:00,66.9,61.6,29.94,NNE,18,0.0,1.0,83,0.00,,---,0.00,VWS V14.01,2013-09-03 15:41:00,
2013-09-03 08:46:00,67.8,60.7,29.94,ENE,68,4.0,4.0,78,0.00,,---,0.00,VWS V14.01,2013-09-03 15:46:00,
2013-09-03 08:51:00,68.6,60.4,29.94,NE,38,0.0,4.0,75,0.00,,---,0.00,VWS V14.01,2013-09-03 15:51:00,
2013-09-03 08:56:00,69.4,60.4,29.94,NE,53,0.0,4.0,73,0.00,,---,0.00,VWS V14.01,2013-09-03 15:56:00,
2013-09-03 09:01:00,70.1,59.9,29.94,NE,43,0.0,4.0,70,0.00,,---,0.00,VWS V14.01,2013-09-03 16:01:00,
2013-09-03 09:06:00,70.3,58.8,29.94,ENE,61,0.0,3.0,67,0.00,,---,0.00,VWS V14.01,2013-09-03 16:06:00,
2013-09-03 09:11:00,70.8,59.3,29.94,ENE,58,0.0,4.0,67,0.00,,---,0.00,VWS V14.01,2013-09-03 16:11:00,
2013-09-03 09:16:00,71.3,58.9,29.94,ENE,58,0.0,4.0,65,0.00,,---,0.00,VWS V14.01,2013-09-03 16:16:00,
2013-09-03 09:21:00,72.0,58.3,29.95,ENE,57,0.0,4.0,62,0.00,,---,0.00,VWS V14.01,2013-09-03 16:21:00,
2013-09-03 09:26:00,72.1,58.4,29.95,ENE,59,0.0,4.0,62,0.00,,---,0.00,VWS V14.01,2013-09-03 16:26:00,
2013-09-03 09:31:00,72.7,58.0,29.95,NE,55,0.0,4.0,60,0.00,,---,0.00,VWS V14.01,2013-09-03 16:31:00,
2013-09-03 09:36:00,73.3,58.1,29.95,NE,54,0.0,1.0,59,0.00,,---,0.00,VWS V14.01,2013-09-03 16:36:00,
2013-09-03 09:41:00,73.9,58.7,29.95,NE,55,0.0,1.0,59,0.00,,---,0.00,VWS V14.01,2013-09-03 16:41:00,
2013-09-03 09:47:00,74.6,58.4,29.95,West,278,0.0,1.0,57,0.00,,---,0.00,VWS V14.01,2013-09-03 16:47:00,
2013-09-03 09:52:00,74.9,58.7,29.95,West,277,0.0,1.0,57,0.00,,---,0.00,VWS V14.01,2013-09-03 16:52:00,
2013-09-03 09:57:00,75.3,58.5,29.95,West,272,0.0,1.0,56,0.00,,---,0.00,VWS V14.01,2013-09-03 16:57:00,
2013-09-03 10:02:00,75.6,58.3,29.95,West,275,0.0,1.0,55,0.00,,---,0.00,VWS V14.01,2013-09-03 17:02:00,
2013-09-03 10:07:00,76.1,58.8,29.95,West,275,0.0,0.0,55,0.00,,---,0.00,VWS V14.01,2013-09-03 17:07:00,
2013-09-03 10:12:00,76.0,58.7,29.95,West,278,0.0,0.0,55,0.00,,---,0.00,VWS V14.01,2013-09-03 17:12:00,
2013-09-03 10:17:00,75.8,59.0,29.95,WNW,287,0.0,0.0,56,0.00,,---,0.00,VWS V14.01,2013-09-03 17:17:00,
2013-09-03 10:22:00,76.3,59.5,29.95,WNW,287,0.0,1.0,56,0.00,,---,0.00,VWS V14.01,2013-09-03 17:22:00,
2013-09-03 10:27:00,76.3,60.0,29.95,NNE,13,0.0,3.0,57,0.00,,---,0.00,VWS V14.01,2013-09-03 17:27:00,
2013-09-03 10:32:00,76.7,59.8,29.95,WNW,294,0.0,4.0,56,0.00,,---,0.00,VWS V14.01,2013-09-03 17:32:00,
2013-09-03 10:37:00,77.0,58.6,29.95,WNW,287,3.0,3.0,53,0.00,,---,0.00,VWS V14.01,2013-09-03 17:37:00,
2013-09-03 10:42:00,77.4,58.4,29.95,West,264,0.0,3.0,52,0.00,,---,0.00,VWS V14.01,2013-09-03 17:42:00,
2013-09-03 10:47:00,77.7,58.2,29.95,West,262,0.0,4.0,51,0.00,,---,0.00,VWS V14.01,2013-09-03 17:47:00,
2013-09-03 10:53:00,78.1,58.0,29.95,WSW,255,0.0,4.0,50,0.00,,---,0.00,VWS V14.01,2013-09-03 17:53:00,
2013-09-03 10:58:00,78.6,58.4,29.95,WSW,255,0.0,4.0,50,0.00,,---,0.00,VWS V14.01,2013-09-03 17:58:00,
2013-09-03 11:03:00,78.6,58.4,29.95,WNW,292,0.0,4.0,50,0.00,,---,0.00,VWS V14.01,2013-09-03 18:03:00,
2013-09-03 11:08:00,79.0,58.2,29.95,WNW,290,0.0,0.0,49,0.00,,---,0.00,VWS V14.01,2013-09-03 18:08:00,
2013-09-03 11:13:00,79.4,58.0,29.95,NNW,337,0.0,4.0,48,0.00,,---,0.00,VWS V14.01,2013-09-03 18:13:00,
2013-09-03 11:18:00,79.4,58.6,29.95,West,261,0.0,4.0,49,0.00,,---,0.00,VWS V14.01,2013-09-03 18:18:00,
2013-09-03 11:23:00,79.6,58.2,29.95,WSW,249,0.0,5.0,48,0.00,,---,0.00,VWS V14.01,2013-09-03 18:23:00,
2013-09-03 11:28:00,79.6,57.0,29.95,West,270,0.0,6.0,46,0.00,,---,0.00,VWS V14.01,2013-09-03 18:28:00,
2013-09-03 11:33:00,79.9,57.9,29.95,West,264,5.0,6.0,47,0.00,,---,0.00,VWS V14.01,2013-09-03 18:33:00,
2013-09-03 11:38:00,80.7,58.0,29.95,West,275,0.0,4.0,46,0.00,,---,0.00,VWS V14.01,2013-09-03 18:38:00,
2013-09-03 11:43:00,81.2,57.2,29.95,WSW,254,0.0,5.0,44,0.00,,---,0.00,VWS V14.01,2013-09-03 18:43:00,
2013-09-03 11:48:00,81.4,61.0,29.95,West,279,1.0,7.0,50,0.00,,---,0.00,VWS V14.01,2013-09-03 18:48:00,
2013-09-03 11:53:00,81.2,61.9,29.94,WSW,253,8.0,10.0,52,0.00,,---,0.00,VWS V14.01,2013-09-03 18:53:00,
2013-09-03 11:58:00,81.1,62.4,29.94,West,279,0.0,10.0,53,0.00,,---,0.00,VWS V14.01,2013-09-03 18:58:00,
2013-09-03 12:03:00,80.9,61.6,29.94,WSW,252,1.0,10.0,52,0.00,,---,0.00,VWS V14.01,2013-09-03 19:03:00,
2013-09-03 12:09:00,80.1,62.0,29.94,West,279,0.0,5.0,54,0.00,,---,0.00,VWS V14.01,2013-09-03 19:09:00,
2013-09-03 12:14:00,80.1,61.4,29.94,West,263,0.0,5.0,53,0.00,,---,0.00,VWS V14.01,2013-09-03 19:14:00,
2013-09-03 12:19:00,80.1,60.9,29.94,WNW,299,0.0,7.0,52,0.00,,---,0.00,VWS V14.01,2013-09-03 19:19:00,
2013-09-03 12:24:00,79.8,60.6,29.94,NNW,346,2.0,7.0,52,0.00,,---,0.00,VWS V14.01,2013-09-03 19:24:00,
2013-09-03 12:29:00,80.3,59.4,29.94,WSW,258,3.0,7.0,49,0.00,,---,0.00,VWS V14.01,2013-09-03 19:29:00,
2013-09-03 12:34:00,80.7,61.5,29.94,WSW,252,5.0,7.0,52,0.00,,---,0.00,VWS V14.01,2013-09-03 19:34:00,
2013-09-03 12:39:00,81.4,61.0,29.94,WSW,258,0.0,3.0,50,0.00,,---,0.00,VWS V14.01,2013-09-03 19:39:00,
2013-09-03 12:44:00,81.2,59.7,29.94,West,264,0.0,7.0,48,0.00,,---,0.00,VWS V14.01,2013-09-03 19:44:00,
2013-09-03 12:49:00,81.6,60.6,29.94,WNW,290,0.0,7.0,49,0.00,,---,0.00,VWS V14.01,2013-09-03 19:49:00,
2013-09-03 12:54:00,82.2,60.0,29.93,West,263,0.0,7.0,47,0.00,,---,0.00,VWS V14.01,2013-09-03 19:54:00,
2013-09-03 12:59:00,82.2,60.6,29.93,WNW,300,6.0,7.0,48,0.00,,---,0.00,VWS V14.01,2013-09-03 19:59:00,
2013-09-03 13:04:00,81.4,59.8,29.93,West,271,2.0,7.0,48,0.00,,---,0.00,VWS V14.01,2013-09-03 20:04:00,
2013-09-03 13:10:00,80.5,59.0,29.93,NNW,332,0.0,5.0,48,0.00,,---,0.00,VWS V14.01,2013-09-03 20:10:00,
2013-09-03 13:15:00,80.3,57.7,29.93,West,279,0.0,6.0,46,0.00,,---,0.00,VWS V14.01,2013-09-03 20:15:00,
2013-09-03 13:20:00,80.7,58.6,29.93,West,272,3.0,6.0,47,0.00,,---,0.00,VWS V14.01,2013-09-03 20:20:00,
2013-09-03 13:25:00,81.4,58.0,29.93,WSW,254,3.0,6.0,45,0.00,,---,0.00,VWS V14.01,2013-09-03 20:25:00,
2013-09-03 13:30:00,81.1,57.8,29.93,WNW,290,0.0,7.0,45,0.00,,---,0.00,VWS V14.01,2013-09-03 20:30:00,
2013-09-03 13:35:00,81.2,57.2,29.93,SSW,206,0.0,7.0,44,0.00,,---,0.00,VWS V14.01,2013-09-03 20:35:00,
2013-09-03 13:40:00,81.6,56.3,29.93,NW,305,0.0,5.0,42,0.00,,---,0.00,VWS V14.01,2013-09-03 20:40:00,
2013-09-03 13:45:00,81.8,57.1,29.93,West,275,0.0,7.0,43,0.00,,---,0.00,VWS V14.01,2013-09-03 20:45:00,
2013-09-03 13:50:00,82.2,56.8,29.93,WSW,257,1.0,10.0,42,0.00,,---,0.00,VWS V14.01,2013-09-03 20:50:00,
2013-09-03 13:55:00,82.4,57.0,29.93,NW,322,1.0,10.0,42,0.00,,---,0.00,VWS V14.01,2013-09-03 20:55:00,
2013-09-03 14:00:00,81.4,56.8,29.93,WSW,250,0.0,11.0,43,0.00,,---,0.00,VWS V14.01,2013-09-03 21:00:00,
2013-09-03 14:05:00,81.1,55.9,29.93,WSW,244,0.0,11.0,42,0.00,,---,0.00,VWS V14.01,2013-09-03 21:05:00,
2013-09-03 14:10:00,81.2,55.3,29.93,SSW,211,5.0,9.0,41,0.00,,---,0.00,VWS V14.01,2013-09-03 21:10:00,
2013-09-03 14:15:00,80.7,55.5,29.93,WSW,250,0.0,9.0,42,0.00,,---,0.00,VWS V14.01,2013-09-03 21:15:00,
2013-09-03 14:20:00,80.9,55.0,29.93,West,281,5.0,9.0,41,0.00,,---,0.00,VWS V14.01,2013-09-03 21:20:00,
2013-09-03 14:26:00,80.9,55.0,29.93,SSW,209,1.0,9.0,41,0.00,,---,0.00,VWS V14.01,2013-09-03 21:26:00,
2013-09-03 14:31:00,81.1,54.5,29.93,West,264,1.0,9.0,40,0.00,,---,0.00,VWS V14.01,2013-09-03 21:31:00,
2013-09-03 14:36:00,81.4,54.1,29.92,South,187,0.0,0.0,39,0.00,,---,0.00,VWS V14.01,2013-09-03 21:36:00,
2013-09-03 14:41:00,81.8,54.5,29.92,WSW,240,0.0,5.0,39,0.00,,---,0.00,VWS V14.01,2013-09-03 21:41:00,
2013-09-03 14:46:00,82.2,54.1,29.92,WNW,290,0.0,5.0,38,0.00,,---,0.00,VWS V14.01,2013-09-03 21:46:00,
2013-09-03 14:51:00,82.6,54.5,29.92,WNW,282,2.0,10.0,38,0.00,,---,0.00,VWS V14.01,2013-09-03 21:51:00,
2013-09-03 14:56:00,82.8,53.2,29.92,WSW,240,4.0,11.0,36,0.00,,---,0.00,VWS V14.01,2013-09-03 21:56:00,
2013-09-03 15:01:00,82.4,53.5,29.92,WSW,254,5.0,11.0,37,0.00,,---,0.00,VWS V14.01,2013-09-03 22:01:00,
2013-09-03 15:06:00,82.4,53.5,29.92,SW,223,5.0,5.0,37,0.00,,---,0.00,VWS V14.01,2013-09-03 22:06:00,
2013-09-03 15:11:00,82.4,53.5,29.92,South,171,5.0,8.0,37,0.00,,---,0.00,VWS V14.01,2013-09-03 22:11:00,
2013-09-03 15:16:00,82.0,53.2,29.92,SSW,206,0.0,8.0,37,0.00,,---,0.00,VWS V14.01,2013-09-03 22:16:00,
2013-09-03 15:21:00,82.4,53.5,29.92,WNW,284,6.0,8.0,37,0.00,,---,0.00,VWS V14.01,2013-09-03 22:21:00,
2013-09-03 15:26:00,82.2,53.4,29.92,SW,223,0.0,8.0,37,0.00,,---,0.00,VWS V14.01,2013-09-03 22:26:00,
2013-09-03 15:31:00,81.6,53.6,29.92,WNW,287,5.0,8.0,38,0.00,,---,0.00,VWS V14.01,2013-09-03 22:31:00,
2013-09-03 15:36:00,81.4,53.4,29.91,West,272,1.0,1.0,38,0.00,,---,0.00,VWS V14.01,2013-09-03 22:36:00,
2013-09-03 15:42:00,82.0,53.9,29.91,WSW,249,0.0,8.0,38,0.00,,---,0.00,VWS V14.01,2013-09-03 22:42:00,
2013-09-03 15:47:00,82.4,52.0,29.91,WSW,254,0.0,8.0,35,0.00,,---,0.00,VWS V14.01,2013-09-03 22:47:00,
2013-09-03 15:52:00,82.2,52.6,29.91,SSW,211,0.0,8.0,36,0.00,,---,0.00,VWS V14.01,2013-09-03 22:52:00,
2013-09-03 15:57:00,81.6,53.6,29.91,West,259,0.0,8.0,38,0.00,,---,0.00,VWS V14.01,2013-09-03 22:57:00,
2013-09-03 16:02:00,81.2,53.2,29.91,WNW,286,1.0,10.0,38,0.00,,---,0.00,VWS V14.01,2013-09-03 23:02:00,
2013-09-03 16:07:00,81.2,53.2,29.90,WSW,251,0.0,8.0,38,0.00,,---,0.00,VWS V14.01,2013-09-03 23:07:00,
2013-09-03 16:12:00,80.9,52.9,29.90,West,276,4.0,8.0,38,0.00,,---,0.00,VWS V14.01,2013-09-03 23:12:00,
2013-09-03 16:17:00,80.7,52.8,29.90,WSW,242,0.0,8.0,38,0.00,,---,0.00,VWS V14.01,2013-09-03 23:17:00,
2013-09-03 16:22:00,80.9,52.2,29.90,South,184,0.0,8.0,37,0.00,,---,0.00,VWS V14.01,2013-09-03 23:22:00,
2013-09-03 16:27:00,80.7,53.5,29.90,WNW,302,6.0,8.0,39,0.00,,---,0.00,VWS V14.01,2013-09-03 23:27:00,
2013-09-03 16:32:00,80.7,53.5,29.90,SW,221,1.0,8.0,39,0.00,,---,0.00,VWS V14.01,2013-09-03 23:32:00,
2013-09-03 16:37:00,80.3,53.1,29.90,SW,233,0.0,7.0,39,0.00,,---,0.00,VWS V14.01,2013-09-03 23:37:00,
2013-09-03 16:43:00,79.8,54.0,29.90,West,279,0.0,7.0,41,0.00,,---,0.00,VWS V14.01,2013-09-03 23:43:00,
2013-09-03 16:48:00,79.8,54.0,29.90,North,9,0.0,7.0,41,0.00,,---,0.00,VWS V14.01,2013-09-03 23:48:00,
2013-09-03 16:53:00,79.6,53.2,29.90,NW,317,0.0,7.0,40,0.00,,---,0.00,VWS V14.01,2013-09-03 23:53:00,
2013-09-03 16:58:00,79.6,53.8,29.90,WNW,291,0.0,8.0,41,0.00,,---,0.00,VWS V14.01,2013-09-03 23:58:00,
2013-09-03 17:03:00,79.2,51.4,29.90,West,273,1.0,8.0,38,0.00,,---,0.00,VWS V14.01,2013-09-04 00:03:00,
2013-09-03 17:08:00,79.0,52.0,29.90,West,275,0.0,6.0,39,0.00,,---,0.00,VWS V14.01,2013-09-04 00:08:00,
2013-09-03 17:13:00,78.6,53.0,29.90,SSW,205,0.0,6.0,41,0.00,,---,0.00,VWS V14.01,2013-09-04 00:13:00,
2013-09-03 17:18:00,78.6,54.9,29.90,WSW,254,6.0,6.0,44,0.00,,---,0.00,VWS V14.01,2013-09-04 00:18:00,
2013-09-03 17:23:00,78.3,55.2,29.90,West,261,0.0,8.0,45,0.00,,---,0.00,VWS V14.01,2013-09-04 00:23:00,
2013-09-03 17:28:00,77.9,56.1,29.90,South,178,0.0,8.0,47,0.00,,---,0.00,VWS V14.01,2013-09-04 00:28:00,
2013-09-03 17:33:00,77.4,56.2,29.90,South,189,0.0,8.0,48,0.00,,---,0.00,VWS V14.01,2013-09-04 00:33:00,
2013-09-03 17:38:00,77.0,57.0,29.90,South,185,0.0,2.0,50,0.00,,---,0.00,VWS V14.01,2013-09-04 00:38:00,
2013-09-03 17:43:00,76.7,57.2,29.90,WNW,283,0.0,2.0,51,0.00,,---,0.00,VWS V14.01,2013-09-04 00:43:00,
2013-09-03 17:48:00,76.3,57.4,29.90,West,271,7.0,8.0,52,0.00,,---,0.00,VWS V14.01,2013-09-04 00:48:00,
2013-09-03 17:54:00,75.6,57.3,29.90,SSW,212,2.0,8.0,53,0.00,,---,0.00,VWS V14.01,2013-09-04 00:54:00,
2013-09-03 17:59:00,75.1,57.8,29.90,SSW,192,0.0,8.0,55,0.00,,---,0.00,VWS V14.01,2013-09-04 00:59:00,
2013-09-03 18:04:00,74.7,57.5,29.90,SSW,213,0.0,8.0,55,0.00,,---,0.00,VWS V14.01,2013-09-04 01:04:00,
2013-09-03 18:09:00,74.6,57.9,29.90,ESE,113,0.0,0.0,56,0.00,,---,0.00,VWS V14.01,2013-09-04 01:09:00,
2013-09-03 18:14:00,74.4,57.7,29.90,SSW,206,0.0,3.0,56,0.00,,---,0.00,VWS V14.01,2013-09-04 01:14:00,
2013-09-03 18:19:00,74.4,58.2,29.90,ESE,107,0.0,3.0,57,0.00,,---,0.00,VWS V14.01,2013-09-04 01:19:00,
2013-09-03 18:24:00,74.0,58.3,29.89,ESE,120,0.0,3.0,58,0.00,,---,0.00,VWS V14.01,2013-09-04 01:24:00,
2013-09-03 18:29:00,73.5,58.3,29.89,South,186,0.0,3.0,59,0.00,,---,0.00,VWS V14.01,2013-09-04 01:29:00,
2013-09-03 18:34:00,72.7,58.5,29.89,SSW,196,0.0,6.0,61,0.00,,---,0.00,VWS V14.01,2013-09-04 01:34:00,
2013-09-03 18:39:00,72.1,58.4,29.89,South,190,0.0,0.0,62,0.00,,---,0.00,VWS V14.01,2013-09-04 01:39:00,
2013-09-03 18:44:00,71.8,58.5,29.89,SSE,159,2.0,3.0,63,0.00,,---,0.00,VWS V14.01,2013-09-04 01:44:00,
2013-09-03 18:49:00,71.3,58.5,29.89,WSW,238,0.0,7.0,64,0.00,,---,0.00,VWS V14.01,2013-09-04 01:49:00,
2013-09-03 18:54:00,70.8,58.5,29.89,SW,223,0.0,7.0,65,0.00,,---,0.00,VWS V14.01,2013-09-04 01:54:00,
2013-09-03 19:00:00,70.4,58.5,29.89,South,182,0.0,7.0,66,0.00,,---,0.00,VWS V14.01,2013-09-04 02:00:00,
2013-09-03 19:05:00,69.9,58.5,29.89,SSW,211,0.0,7.0,67,0.00,,---,0.00,VWS V14.01,2013-09-04 02:05:00,
2013-09-03 19:10:00,69.4,58.4,29.89,NNW,342,0.0,5.0,68,0.00,,---,0.00,VWS V14.01,2013-09-04 02:10:00,
2013-09-03 19:15:00,68.8,58.2,29.89,South,189,0.0,6.0,69,0.00,,---,0.00,VWS V14.01,2013-09-04 02:15:00,
2013-09-03 19:20:00,68.3,58.2,29.90,SW,223,0.0,6.0,70,0.00,,---,0.00,VWS V14.01,2013-09-04 02:20:00,
2013-09-03 19:25:00,67.8,58.1,29.90,SSW,194,0.0,6.0,71,0.00,,---,0.00,VWS V14.01,2013-09-04 02:25:00,
2013-09-03 19:30:00,67.1,58.2,29.90,SW,223,7.0,10.0,73,0.00,,---,0.00,VWS V14.01,2013-09-04 02:30:00,
2013-09-03 19:35:00,66.4,57.9,29.91,SSW,212,2.0,11.0,74,0.00,,---,0.00,VWS V14.01,2013-09-04 02:35:00,
2013-09-03 19:40:00,66.0,58.2,29.91,SW,221,0.0,6.0,76,0.00,,---,0.00,VWS V14.01,2013-09-04 02:40:00,
2013-09-03 19:45:00,65.6,57.8,29.91,ESE,122,0.0,6.0,76,0.00,,---,0.00,VWS V14.01,2013-09-04 02:45:00,
2013-09-03 19:50:00,65.3,57.9,29.91,South,187,0.0,9.0,77,0.00,,---,0.00,VWS V14.01,2013-09-04 02:50:00,
2013-09-03 19:55:00,65.2,58.2,29.91,SSW,209,1.0,9.0,78,0.00,,---,0.00,VWS V14.01,2013-09-04 02:55:00,
2013-09-03 20:00:00,64.8,57.8,29.91,South,186,0.0,9.0,78,0.00,,---,0.00,VWS V14.01,2013-09-04 03:00:00,
2013-09-03 20:05:00,64.7,58.0,29.91,South,190,0.0,9.0,79,0.00,,---,0.00,VWS V14.01,2013-09-04 03:05:00,
2013-09-03 20:10:00,64.7,58.0,29.91,South,188,0.0,7.0,79,0.00,,---,0.00,VWS V14.01,2013-09-04 03:10:00,
2013-09-03 20:15:00,64.5,58.2,29.91,ESE,121,0.0,7.0,80,0.00,,---,0.00,VWS V14.01,2013-09-04 03:15:00,
2013-09-03 20:21:00,64.3,58.0,29.91,SSW,211,0.0,7.0,80,0.00,,---,0.00,VWS V14.01,2013-09-04 03:21:00,
2013-09-03 20:26:00,64.2,57.9,29.91,South,188,0.0,7.0,80,0.00,,---,0.00,VWS V14.01,2013-09-04 03:26:00,
2013-09-03 20:31:00,64.2,57.9,29.91,SSW,199,3.0,7.0,80,0.00,,---,0.00,VWS V14.01,2013-09-04 03:31:00,
2013-09-03 20:36:00,64.0,58.1,29.92,SW,221,0.0,0.0,81,0.00,,---,0.00,VWS V14.01,2013-09-04 03:36:00,
2013-09-03 20:41:00,63.9,58.0,29.92,SSW,198,0.0,7.0,81,0.00,,---,0.00,VWS V14.01,2013-09-04 03:41:00,
2013-09-03 20:46:00,63.9,58.0,29.92,SSW,206,3.0,11.0,81,0.00,,---,0.00,VWS V14.01,2013-09-04 03:46:00,
2013-09-03 20:51:00,63.9,58.0,29.92,SSW,200,6.0,11.0,81,0.00,,---,0.00,VWS V14.01,2013-09-04 03:51:00,
2013-09-03 20:56:00,63.7,57.8,29.92,South,174,0.0,11.0,81,0.00,,---,0.00,VWS V14.01,2013-09-04 03:56:00,
2013-09-03 21:01:00,63.7,57.8,29.92,SSE,156,0.0,11.0,81,0.00,,---,0.00,VWS V14.01,2013-09-04 04:01:00,
2013-09-03 21:03:00,63.7,57.8,29.92,South,171,0.0,11.0,81,0.00,,---,0.00,VWS V14.01,2013-09-04 04:03:00,
2013-09-03 21:08:00,63.7,57.8,29.93,SSW,192,1.0,4.0,81,0.00,,---,0.00,VWS V14.01,2013-09-04 04:08:00,
2013-09-03 21:13:00,63.7,57.8,29.93,South,178,0.0,5.0,81,0.00,,---,0.00,VWS V14.01,2013-09-04 04:13:00,
2013-09-03 21:18:00,63.7,57.0,29.93,SSW,192,0.0,-999.0,80,-99.99,,,0.00,weatherlink.com 1.10,2013-09-04 04:18:00,
2013-09-03 21:23:00,63.7,57.4,29.93,SSW,207,4.0,5.0,80,0.00,,---,0.00,VWS V14.01,2013-09-04 04:23:00,
2013-09-03 21:28:00,63.7,57.4,29.93,SSW,209,0.0,5.0,80,0.00,,---,0.00,VWS V14.01,2013-09-04 04:28:00,
2013-09-03 21:33:00,63.7,57.4,29.93,South,173,0.0,5.0,80,0.00,,---,0.00,VWS V14.01,2013-09-04 04:33:00,
2013-09-03 21:38:00,63.7,57.4,29.93,NW,319,0.0,2.0,80,0.00,,---,0.00,VWS V14.01,2013-09-04 04:38:00,
2013-09-03 21:43:00,63.7,57.4,29.93,WNW,302,0.0,3.0,80,0.00,,---,0.00,VWS V14.01,2013-09-04 04:43:00,
2013-09-03 21:48:00,63.7,57.4,29.93,WNW,302,0.0,3.0,80,0.00,,---,0.00,VWS V14.01,2013-09-04 04:48:00,
2013-09-03 21:53:00,63.5,57.2,29.94,WNW,302,0.0,3.0,80,0.00,,---,0.00,VWS V14.01,2013-09-04 04:53:00,
2013-09-03 21:58:00,63.5,57.2,29.94,WNW,302,0.0,3.0,80,0.00,,---,0.00,VWS V14.01,2013-09-04 04:58:00,
2013-09-03 22:03:00,63.2,57.3,29.94,WNW,302,0.0,3.0,81,0.00,,---,0.00,VWS V14.01,2013-09-04 05:03:00,
2013-09-03 22:08:00,63.1,57.2,29.94,WNW,302,0.0,0.0,81,0.00,,---,0.00,VWS V14.01,2013-09-04 05:08:00,
2013-09-03 22:13:00,62.7,56.8,29.94,WNW,302,0.0,0.0,81,0.00,,---,0.00,VWS V14.01,2013-09-04 05:13:00,
2013-09-03 22:19:00,62.4,56.8,29.94,WNW,302,0.0,0.0,82,0.00,,---,0.00,VWS V14.01,2013-09-04 05:19:00,
2013-09-03 22:24:00,62.1,56.5,29.94,WNW,302,0.0,0.0,82,0.00,,---,0.00,VWS V14.01,2013-09-04 05:24:00,
2013-09-03 22:29:00,62.0,56.5,29.94,WNW,302,0.0,0.0,82,0.00,,---,0.00,VWS V14.01,2013-09-04 05:29:00,
2013-09-03 22:34:00,61.6,56.4,29.94,WNW,302,0.0,0.0,83,0.00,,---,0.00,VWS V14.01,2013-09-04 05:34:00,
2013-09-03 22:39:00,61.5,56.6,29.94,WNW,302,0.0,0.0,84,0.00,,---,0.00,VWS V14.01,2013-09-04 05:39:00,
2013-09-03 22:44:00,61.3,56.4,29.94,WNW,302,0.0,0.0,84,0.00,,---,0.00,VWS V14.01,2013-09-04 05:44:00,
2013-09-03 22:49:00,61.0,56.1,29.94,WNW,302,0.0,0.0,84,0.00,,---,0.00,VWS V14.01,2013-09-04 05:49:00,
2013-09-03 22:54:00,60.9,56.0,29.94,WNW,302,0.0,0.0,84,0.00,,---,0.00,VWS V14.01,2013-09-04 05:54:00,
2013-09-03 22:59:00,60.5,56.0,29.94,WNW,302,0.0,0.0,85,0.00,,---,0.00,VWS V14.01,2013-09-04 05:59:00,
2013-09-03 23:04:00,60.4,55.9,29.94,WNW,302,0.0,0.0,85,0.00,,---,0.00,VWS V14.01,2013-09-04 06:04:00,
2013-09-03 23:09:00,60.2,56.0,29.95,WNW,302,0.0,0.0,86,0.00,,---,0.00,VWS V14.01,2013-09-04 06:09:00,
2013-09-03 23:14:00,60.1,55.9,29.95,WNW,302,0.0,0.0,86,0.00,,---,0.00,VWS V14.01,2013-09-04 06:14:00,
2013-09-03 23:19:00,59.9,55.7,29.95,WNW,302,0.0,0.0,86,0.00,,---,0.00,VWS V14.01,2013-09-04 06:19:00,
2013-09-03 23:25:00,59.8,55.6,29.95,WNW,302,0.0,0.0,86,0.00,,---,0.00,VWS V14.01,2013-09-04 06:25:00,
2013-09-03 23:30:00,59.8,55.6,29.95,WNW,302,0.0,0.0,86,0.00,,---,0.00,VWS V14.01,2013-09-04 06:30:00,
2013-09-03 23:35:00,59.6,55.4,29.95,WNW,302,0.0,0.0,86,0.00,,---,0.00,VWS V14.01,2013-09-04 06:35:00,
2013-09-03 23:40:00,59.5,55.3,29.95,WNW,302,0.0,0.0,86,0.00,,---,0.00,VWS V14.01,2013-09-04 06:40:00,
2013-09-03 23:45:00,59.5,56.0,29.95,WNW,302,0.0,-999.0,87,-99.99,,,0.00,weatherlink.com 1.10,2013-09-04 06:45:00,
2013-09-03 23:50:00,59.3,55.4,29.95,WNW,302,0.0,0.0,87,0.00,,---,0.00,VWS V14.01,2013-09-04 06:50:00,
2013-09-03 23:55:00,59.2,55.3,29.95,WNW,302,0.0,0.0,87,0.00,,---,0.00,VWS V14.01,2013-09-04 06:55:00,